createdAt,value
2018-11-25T00:00:31.245Z,4.40
2018-11-25T00:03:00.296Z,6.80
2018-11-25T00:05:29.106Z,8.30
2018-11-25T00:07:57.917Z,3.37
2018-11-25T00:10:27.657Z,3.93
2018-11-25T00:12:56.604Z,8.13
2018-11-25T00:15:25.948Z,7.07
2018-11-25T00:17:55.015Z,7.37
2018-11-25T00:20:24.798Z,9.20
2018-11-25T00:22:54.415Z,6.83
2018-11-25T00:25:24.106Z,5.20
2018-11-25T00:27:55.026Z,6.83
2018-11-25T00:30:23.956Z,10.63
2018-11-25T00:32:53.959Z,8.20
2018-11-25T00:35:22.963Z,5.17
2018-11-25T00:37:52.160Z,5.53
2018-11-25T00:40:21.029Z,5.43
2018-11-25T00:42:50.747Z,7.70
2018-11-25T00:45:20.560Z,6.87
2018-11-25T00:47:50.100Z,11.83
2018-11-25T00:50:18.967Z,8.40
2018-11-25T00:52:47.792Z,7.27
2018-11-25T00:55:18.421Z,6.33
2018-11-25T00:57:48.377Z,5.57
2018-11-25T01:00:18.905Z,8.00
2018-11-25T01:02:49.782Z,8.70
2018-11-25T01:05:18.586Z,9.23
2018-11-25T01:07:47.406Z,4.60
2018-11-25T01:10:17.452Z,6.13
2018-11-25T01:12:46.543Z,4.70
2018-11-25T01:15:17.292Z,10.10
2018-11-25T01:17:46.109Z,6.17
2018-11-25T01:20:18.537Z,10.77
2018-11-25T01:22:48.043Z,6.03
2018-11-25T01:25:17.665Z,9.43
2018-11-25T01:27:46.552Z,5.63
2018-11-25T01:30:17.928Z,5.30
2018-11-25T01:32:46.727Z,6.17
2018-11-25T01:35:15.882Z,8.97
2018-11-25T01:37:44.869Z,5.43
2018-11-25T01:40:16.682Z,5.07
2018-11-25T01:42:46.213Z,6.93
2018-11-25T01:45:20.016Z,6.37
2018-11-25T01:47:49.287Z,6.43
2018-11-25T01:50:18.859Z,5.90
2018-11-25T01:52:48.501Z,6.50
2018-11-25T01:55:19.138Z,6.20
2018-11-25T01:57:48.932Z,5.47
2018-11-25T02:00:20.613Z,6.50
2018-11-25T02:02:50.465Z,2.80
2018-11-25T02:05:25.858Z,9.83
2018-11-25T02:07:54.764Z,4.93
2018-11-25T02:10:24.337Z,7.80
2018-11-25T02:12:53.407Z,9.50
2018-11-25T02:15:23.752Z,6.33
2018-11-25T02:17:52.828Z,4.63
2018-11-25T02:20:23.680Z,9.63
2018-11-25T02:22:53.649Z,4.80
2018-11-25T02:25:23.561Z,5.30
2018-11-25T02:27:52.573Z,7.13
2018-11-25T02:30:21.696Z,4.13
2018-11-25T02:32:52.004Z,6.10
2018-11-25T02:35:21.306Z,5.43
2018-11-25T02:37:50.479Z,8.77
2018-11-25T02:40:19.527Z,6.40
2018-11-25T02:42:48.948Z,10.83
2018-11-25T02:45:18.736Z,5.43
2018-11-25T02:47:47.563Z,5.97
2018-11-25T02:50:33.767Z,8.93
2018-11-25T02:53:05.193Z,6.13
2018-11-25T02:55:34.019Z,5.60
2018-11-25T02:58:03.562Z,3.33
2018-11-25T03:00:34.022Z,10.80
2018-11-25T03:03:02.839Z,6.40
2018-11-25T03:05:31.732Z,4.80
2018-11-25T03:08:00.562Z,6.40
2018-11-25T03:10:30.482Z,9.73
2018-11-25T03:12:59.230Z,6.60
2018-11-25T03:15:28.629Z,6.47
2018-11-25T03:17:57.430Z,9.20
2018-11-25T03:20:26.907Z,3.10
2018-11-25T03:22:55.691Z,6.43
2018-11-25T03:25:25.030Z,5.93
2018-11-25T03:27:54.073Z,9.67
2018-11-25T03:30:23.173Z,4.70
2018-11-25T03:32:53.211Z,7.97
2018-11-25T03:35:22.902Z,4.73
2018-11-25T03:37:52.385Z,4.73
2018-11-25T03:40:21.247Z,4.27
2018-11-25T03:42:50.170Z,6.67
2018-11-25T03:45:21.890Z,5.67
2018-11-25T03:47:51.347Z,4.73
2018-11-25T03:50:22.437Z,6.63
2018-11-25T03:52:51.347Z,5.23
2018-11-25T03:55:20.385Z,6.70
2018-11-25T03:57:50.759Z,5.80
2018-11-25T04:00:21.605Z,6.23
2018-11-25T04:02:52.308Z,6.77
2018-11-25T04:05:22.977Z,3.57
2018-11-25T04:07:51.986Z,4.93
2018-11-25T04:10:21.509Z,3.53
2018-11-25T04:12:50.550Z,6.23
2018-11-25T04:15:20.372Z,3.50
2018-11-25T04:17:49.408Z,3.90
2018-11-25T04:20:19.830Z,6.33
2018-11-25T04:22:48.933Z,8.00
2018-11-25T04:25:18.645Z,5.73
2018-11-25T04:27:47.458Z,3.23
2018-11-25T04:30:47.073Z,5.13
2018-11-25T04:33:15.863Z,4.47
2018-11-25T04:35:45.684Z,5.53
2018-11-25T04:38:14.476Z,4.37
2018-11-25T04:40:43.294Z,3.60
2018-11-25T04:43:12.142Z,4.23
2018-11-25T04:45:41.686Z,3.90
2018-11-25T04:48:10.446Z,4.73
2018-11-25T04:50:39.320Z,2.97
2018-11-25T04:53:08.195Z,7.27
2018-11-25T04:55:37.000Z,5.33
2018-11-25T04:58:07.513Z,9.90
2018-11-25T05:00:36.894Z,5.20
2018-11-25T05:03:06.123Z,4.47
2018-11-25T05:05:35.570Z,3.57
2018-11-25T05:09:08.640Z,3.43
2018-11-25T05:11:37.911Z,3.27
2018-11-25T05:14:07.623Z,5.20
2018-11-25T05:16:36.503Z,9.50
2018-11-25T05:19:05.370Z,5.40
2018-11-25T05:21:35.118Z,5.23
2018-11-25T05:24:04.807Z,7.90
2018-11-25T05:26:33.690Z,5.87
2018-11-25T05:29:02.648Z,3.20
2018-11-25T05:31:31.645Z,4.83
2018-11-25T05:34:01.252Z,6.10
2018-11-25T05:36:31.005Z,3.90
2018-11-25T05:39:05.727Z,8.07
2018-11-25T05:41:34.786Z,3.43
2018-11-25T05:44:04.674Z,5.33
2018-11-25T05:46:33.599Z,8.10
2018-11-25T05:49:02.699Z,2.80
2018-11-25T05:51:31.803Z,7.73
2018-11-25T05:56:50.409Z,7.67
2018-11-25T05:59:20.428Z,8.23
2018-11-25T06:01:50.263Z,3.43
2018-11-25T06:04:20.286Z,5.13
2018-11-25T06:06:49.461Z,2.53
2018-11-25T06:09:20.609Z,5.03
2018-11-25T06:11:49.646Z,3.10
2018-11-25T06:14:19.472Z,7.80
2018-11-25T06:16:48.265Z,3.00
2018-11-25T06:19:17.086Z,5.30
2018-11-25T06:21:46.581Z,4.90
2018-11-25T06:24:16.423Z,5.97
2018-11-25T06:26:45.390Z,4.00
2018-11-25T06:29:14.636Z,3.70
2018-11-25T06:31:43.623Z,5.83
2018-11-25T06:34:15.096Z,3.77
2018-11-25T06:36:44.974Z,5.13
2018-11-25T06:42:46.630Z,8.87
2018-11-25T06:45:32.264Z,5.07
2018-11-25T06:48:01.623Z,2.90
2018-11-25T06:50:30.870Z,4.83
2018-11-25T06:53:00.120Z,6.23
2018-11-25T06:55:29.267Z,3.93
2018-11-25T06:57:59.601Z,4.60
2018-11-25T07:00:29.756Z,3.03
2018-11-25T07:02:59.321Z,8.53
2018-11-25T07:05:29.032Z,3.80
2018-11-25T07:07:58.554Z,2.53
2018-11-25T07:10:28.350Z,6.07
2018-11-25T07:15:55.701Z,4.97
2018-11-25T07:18:27.251Z,3.30
2018-11-25T07:20:57.561Z,3.27
2018-11-25T07:23:28.588Z,4.37
2018-11-25T07:25:58.027Z,4.70
2018-11-25T07:28:36.565Z,4.40
2018-11-25T07:31:06.594Z,4.10
2018-11-25T07:33:36.920Z,5.70
2018-11-25T07:36:07.724Z,4.90
2018-11-25T07:38:41.871Z,9.60
2018-11-25T07:41:11.966Z,4.90
2018-11-25T07:43:41.228Z,9.00
2018-11-25T07:46:10.740Z,2.57
2018-11-25T07:48:40.404Z,5.20
2018-11-25T07:51:09.394Z,4.13
2018-11-25T07:53:39.592Z,4.70
2018-11-25T07:56:08.985Z,1.70
2018-11-25T07:58:39.270Z,5.47
2018-11-25T08:01:08.616Z,7.07
2018-11-25T08:03:37.712Z,3.40
2018-11-25T08:06:07.037Z,3.17
2018-11-25T08:08:39.071Z,6.33
2018-11-25T08:11:08.058Z,4.53
2018-11-25T08:13:37.216Z,4.30
2018-11-25T08:16:07.643Z,3.93
2018-11-25T08:18:36.745Z,4.00
2018-11-25T08:21:07.219Z,4.60
2018-11-25T08:23:37.373Z,5.77
2018-11-25T08:26:06.960Z,2.47
2018-11-25T08:28:36.051Z,3.87
2018-11-25T08:31:05.359Z,4.47
2018-11-25T08:33:34.561Z,4.00
2018-11-25T08:36:04.434Z,5.77
2018-11-25T08:38:33.393Z,7.03
2018-11-25T08:41:02.438Z,4.50
2018-11-25T08:43:31.347Z,4.07
2018-11-25T08:46:01.399Z,4.67
2018-11-25T08:48:30.493Z,4.30
2018-11-25T08:50:59.642Z,4.37
2018-11-25T08:53:28.892Z,5.17
2018-11-25T08:55:59.190Z,4.00
2018-11-25T08:58:29.056Z,3.67
2018-11-25T09:00:58.785Z,3.47
2018-11-25T09:03:27.647Z,4.70
2018-11-25T09:05:57.306Z,3.30
2018-11-25T09:08:26.539Z,5.00
2018-11-25T09:10:58.051Z,3.53
2018-11-25T09:13:27.212Z,4.03
2018-11-25T09:15:57.388Z,4.13
2018-11-25T09:18:26.935Z,6.73
2018-11-25T09:20:56.916Z,3.10
2018-11-25T09:23:26.521Z,4.53
2018-11-25T09:25:56.418Z,4.97
2018-11-25T09:28:26.249Z,7.03
2018-11-25T09:30:55.992Z,7.93
2018-11-25T09:33:26.024Z,6.33
2018-11-25T09:35:56.091Z,5.40
2018-11-25T09:38:24.999Z,6.27
2018-11-25T09:40:59.210Z,5.57
2018-11-25T09:43:23.546Z,4.63
2018-11-25T09:45:53.326Z,4.07
2018-11-25T09:48:22.432Z,3.67
2018-11-25T09:50:51.554Z,3.20
2018-11-25T09:53:20.440Z,4.53
2018-11-25T09:55:49.295Z,3.33
2018-11-25T09:58:25.352Z,2.13
2018-11-25T10:00:48.638Z,2.20
2018-11-25T10:03:18.143Z,5.63
2018-11-25T10:05:47.615Z,1.97
2018-11-25T10:08:16.395Z,4.03
2018-11-25T10:10:52.452Z,4.70
2018-11-25T10:13:14.455Z,2.87
2018-11-25T10:15:43.896Z,3.60
2018-11-25T10:18:12.628Z,4.30
2018-11-25T10:20:44.136Z,4.80
2018-11-25T10:23:13.824Z,3.53
2018-11-25T10:25:42.615Z,5.87
2018-11-25T10:28:11.466Z,3.50
2018-11-25T10:30:40.840Z,4.43
2018-11-25T10:33:10.333Z,3.30
2018-11-25T10:35:39.646Z,2.57
2018-11-25T10:38:08.574Z,6.37
2018-11-25T10:40:37.504Z,4.07
2018-11-25T10:43:06.399Z,5.73
2018-11-25T10:45:35.144Z,4.40
2018-11-25T10:48:04.096Z,4.57
2018-11-25T10:50:33.010Z,3.70
2018-11-25T10:53:01.827Z,2.63
2018-11-25T10:55:30.717Z,4.67
2018-11-25T10:58:00.314Z,5.97
2018-11-25T11:00:38.417Z,5.53
2018-11-25T11:03:14.985Z,2.20
2018-11-25T11:05:50.503Z,4.20
2018-11-25T11:08:20.197Z,3.60
2018-11-25T11:10:50.860Z,2.37
2018-11-25T11:13:20.743Z,2.10
2018-11-25T11:15:52.495Z,2.47
2018-11-25T11:18:22.336Z,3.80
2018-11-25T11:20:53.422Z,4.53
2018-11-25T11:44:43.189Z,5.50
2018-11-25T11:47:12.485Z,3.67
2018-11-25T11:49:41.349Z,2.73
2018-11-25T11:52:10.199Z,4.40
2018-11-25T11:54:39.218Z,6.10
2018-11-25T11:57:08.312Z,3.87
2018-11-25T11:59:38.043Z,4.23
2018-11-25T12:02:07.903Z,4.30
2018-11-25T12:04:37.634Z,3.03
2018-11-25T12:07:06.431Z,3.30
2018-11-25T12:09:35.840Z,3.93
2018-11-25T12:12:04.683Z,3.47
2018-11-25T12:14:33.535Z,4.67
2018-11-25T12:17:02.367Z,5.97
2018-11-25T12:19:43.142Z,4.53
2018-11-25T12:24:52.991Z,4.63
2018-11-25T12:27:22.538Z,4.83
2018-11-25T12:29:52.391Z,3.30
2018-11-25T12:32:22.792Z,4.10
2018-11-25T12:34:51.572Z,5.90
2018-11-25T12:37:20.488Z,6.30
2018-11-25T12:39:49.222Z,5.27
2018-11-25T12:42:18.014Z,2.87
2018-11-25T12:44:47.447Z,2.37
2018-11-25T12:47:18.309Z,2.10
2018-11-25T12:49:47.278Z,4.07
2018-11-25T12:52:16.463Z,3.63
2018-11-25T12:54:45.522Z,3.20
2018-11-25T12:57:14.600Z,3.37
2018-11-25T12:59:44.264Z,5.27
2018-11-25T13:02:13.797Z,4.83
2018-11-25T13:04:42.922Z,3.67
2018-11-25T13:07:12.181Z,5.10
2018-11-25T13:09:41.994Z,4.63
2018-11-25T13:12:10.896Z,2.77
2018-11-25T13:14:40.071Z,3.20
2018-11-25T13:17:09.756Z,4.07
2018-11-25T13:19:39.639Z,3.63
2018-11-25T13:22:10.050Z,3.73
2018-11-25T13:24:39.963Z,6.47
2018-11-25T13:27:09.537Z,4.43
2018-11-25T13:29:39.683Z,5.93
2018-11-25T13:32:09.284Z,5.30
2018-11-25T13:34:38.671Z,3.73
2018-11-25T13:37:07.492Z,4.47
2018-11-25T13:39:36.906Z,3.20
2018-11-25T13:42:16.057Z,3.93
2018-11-25T13:44:44.560Z,3.93
2018-11-25T13:47:14.790Z,3.63
2018-11-25T13:49:44.050Z,3.60
2018-11-25T13:52:12.820Z,5.27
2018-11-25T13:54:41.601Z,4.50
2018-11-25T13:57:10.341Z,3.40
2018-11-25T13:59:40.188Z,9.03
2018-11-25T14:02:09.847Z,6.60
2018-11-25T14:04:39.493Z,3.37
2018-11-25T14:07:08.857Z,3.10
2018-11-25T14:09:39.795Z,3.83
2018-11-25T14:12:08.802Z,4.50
2018-11-25T14:14:39.749Z,4.40
2018-11-25T14:17:09.347Z,2.57
2018-11-25T14:19:38.350Z,2.73
2018-11-25T14:22:08.459Z,4.47
2018-11-25T14:24:37.939Z,3.63
2018-11-25T14:27:08.897Z,2.33
2018-11-25T14:29:39.275Z,4.20
2018-11-25T14:32:09.116Z,5.30
2018-11-25T14:34:39.277Z,7.13
2018-11-25T14:37:08.328Z,3.97
2018-11-25T14:39:39.517Z,5.17
2018-11-25T14:42:08.797Z,3.60
2018-11-25T14:44:38.619Z,5.00
2018-11-25T14:47:08.387Z,3.93
2018-11-25T14:49:38.728Z,6.00
2018-11-25T14:52:08.091Z,14.83
2018-11-25T14:54:37.231Z,12.93
2018-11-25T14:57:07.559Z,9.73
2018-11-25T14:59:38.361Z,7.53
2018-11-25T15:02:09.243Z,12.37
2018-11-25T15:04:38.318Z,5.33
2018-11-25T15:07:07.492Z,4.83
2018-11-25T15:09:37.984Z,5.47
2018-11-25T15:12:07.392Z,5.33
2018-11-25T15:14:37.428Z,3.57
2018-11-25T15:17:08.365Z,4.83
2018-11-25T15:19:37.460Z,4.27
2018-11-25T15:22:07.687Z,3.10
2018-11-25T15:24:38.261Z,5.40
2018-11-25T15:27:08.969Z,5.07
2018-11-25T15:29:38.396Z,4.90
2018-11-25T15:32:07.392Z,6.10
2018-11-25T15:34:37.301Z,6.07
2018-11-25T15:37:07.036Z,4.00
2018-11-25T15:39:36.320Z,4.20
2018-11-25T15:42:05.234Z,11.33
2018-11-25T15:44:34.708Z,5.20
2018-11-25T15:47:08.507Z,3.03
2018-11-25T15:49:37.449Z,2.93
2018-11-25T15:52:06.538Z,4.10
2018-11-25T15:54:35.342Z,5.90
2018-11-25T15:57:04.197Z,2.27
2018-11-25T15:59:33.435Z,5.50
2018-11-25T16:02:06.636Z,4.10
2018-11-25T16:04:35.437Z,4.67
2018-11-25T16:07:04.557Z,6.57
2018-11-25T16:09:34.070Z,3.57
2018-11-25T16:12:04.014Z,4.60
2018-11-25T16:14:33.593Z,3.23
2018-11-25T16:17:03.188Z,5.33
2018-11-25T16:19:32.807Z,5.83
2018-11-25T16:22:01.583Z,3.93
2018-11-25T16:24:31.408Z,3.07
2018-11-25T16:27:00.795Z,4.33
2018-11-25T16:29:29.538Z,9.57
2018-11-25T16:31:58.847Z,5.47
2018-11-25T16:34:28.645Z,6.00
2018-11-25T16:36:57.449Z,6.60
2018-11-25T16:39:26.944Z,5.13
2018-11-25T16:41:55.769Z,5.33
2018-11-25T16:44:25.399Z,6.10
2018-11-25T16:46:54.950Z,6.27
2018-11-25T16:49:23.930Z,7.00
2018-11-25T16:51:52.793Z,4.87
2018-11-25T16:54:21.604Z,7.30
2018-11-25T16:56:50.388Z,13.30
2018-11-25T16:59:19.696Z,6.10
2018-11-25T17:01:48.956Z,5.23
2018-11-25T17:04:17.738Z,6.90
2018-11-25T17:06:48.051Z,6.87
2018-11-25T17:09:17.908Z,3.60
2018-11-25T17:11:46.672Z,5.70
2018-11-25T17:14:15.477Z,9.67
2018-11-25T17:16:44.655Z,8.13
2018-11-25T17:19:13.395Z,13.33
2018-11-25T17:21:42.221Z,10.87
2018-11-25T17:24:11.687Z,9.20
2018-11-25T17:26:40.701Z,7.93
2018-11-25T17:29:09.721Z,8.70
2018-11-25T17:31:39.092Z,7.43
2018-11-25T17:34:08.809Z,9.70
2018-11-25T17:36:38.536Z,6.87
2018-11-25T17:39:09.223Z,7.07
2018-11-25T17:41:40.127Z,11.33
2018-11-25T17:44:10.093Z,10.07
2018-11-25T17:46:40.462Z,7.10
2018-11-25T17:49:09.516Z,11.70
2018-11-25T17:51:38.926Z,11.13
2018-11-25T17:54:08.379Z,11.97
2018-11-25T17:56:37.312Z,11.03
2018-11-25T17:59:06.861Z,12.60
2018-11-25T18:01:36.236Z,10.43
2018-11-25T18:04:05.719Z,7.33
2018-11-25T18:06:34.505Z,5.07
2018-11-25T18:09:04.262Z,6.00
2018-11-25T18:11:33.105Z,14.03
2018-11-25T18:14:02.182Z,13.37
2018-11-25T18:16:31.963Z,6.77
2018-11-25T18:19:27.959Z,9.00
2018-11-25T18:22:03.007Z,11.97
2018-11-25T18:24:32.668Z,15.47
2018-11-25T18:27:01.472Z,11.60
2018-11-25T18:29:31.206Z,13.33
2018-11-25T18:32:00.034Z,7.90
2018-11-25T18:34:28.811Z,8.83
2018-11-25T18:36:58.608Z,17.53
2018-11-25T18:39:28.386Z,10.47
2018-11-25T18:41:57.379Z,15.50
2018-11-25T18:44:27.243Z,9.80
2018-11-25T18:46:57.879Z,9.00
2018-11-25T18:49:27.636Z,13.40
2018-11-25T18:51:56.624Z,9.93
2018-11-25T18:54:25.455Z,12.73
2018-11-25T18:56:54.302Z,17.90
2018-11-25T18:59:23.811Z,14.53
2018-11-25T19:02:03.828Z,12.73
2018-11-25T19:04:32.755Z,13.83
2018-11-25T19:07:01.486Z,16.47
2018-11-25T19:09:31.116Z,11.27
2018-11-25T19:11:59.880Z,9.67
2018-11-25T19:14:29.556Z,9.33
2018-11-25T19:16:59.409Z,11.27
2018-11-25T19:19:28.197Z,11.03
2018-11-25T19:21:57.143Z,13.53
2018-11-25T19:24:27.551Z,10.43
2018-11-25T19:26:57.257Z,9.70
2018-11-25T19:29:26.119Z,10.37
2018-11-25T19:31:54.964Z,9.43
2018-11-25T19:34:23.922Z,8.57
2018-11-25T19:36:52.775Z,13.77
2018-11-25T19:39:21.931Z,12.03
2018-11-25T19:41:51.307Z,13.33
2018-11-25T19:44:21.208Z,12.60
2018-11-25T19:46:51.443Z,13.03
2018-11-25T19:49:20.774Z,13.50
2018-11-25T19:51:49.597Z,12.80
2018-11-25T19:54:19.524Z,9.30
2018-11-25T19:56:48.577Z,11.30
2018-11-25T19:59:19.244Z,7.47
2018-11-25T20:01:48.739Z,10.87
2018-11-25T20:04:17.515Z,11.33
2018-11-25T20:06:47.112Z,10.47
2018-11-25T20:09:16.784Z,8.23
2018-11-25T20:11:45.634Z,14.40
2018-11-25T20:14:14.411Z,8.33
2018-11-25T20:16:49.117Z,11.40
2018-11-25T20:19:17.977Z,10.07
2018-11-25T20:21:51.991Z,8.87
2018-11-25T20:24:21.540Z,9.40
2018-11-25T20:26:55.411Z,12.37
2018-11-25T20:29:24.328Z,7.40
2018-11-25T20:31:58.731Z,8.68
2018-11-25T20:34:28.267Z,9.30
2018-11-25T20:36:57.151Z,12.07
2018-11-25T20:39:32.264Z,6.70
2018-11-25T20:42:01.098Z,7.30
2018-11-25T20:44:30.623Z,11.30
2018-11-25T20:47:07.886Z,8.17
2018-11-25T20:49:36.724Z,11.10
2018-11-25T20:52:11.031Z,5.70
2018-11-25T20:54:39.759Z,6.83
2018-11-25T20:57:08.500Z,6.70
2018-11-25T20:59:38.259Z,9.03
2018-11-25T21:02:07.497Z,9.13
2018-11-25T21:04:36.271Z,7.67
2018-11-25T21:07:05.115Z,10.03
2018-11-25T21:09:34.380Z,7.42
2018-11-25T21:12:03.119Z,15.63
2018-11-25T21:14:36.847Z,9.83
2018-11-25T21:17:06.006Z,9.30
2018-11-25T21:19:34.719Z,7.83
2018-11-25T21:22:04.609Z,5.93
2018-11-25T21:24:33.887Z,10.57
2018-11-25T21:27:02.607Z,8.67
2018-11-25T21:29:32.634Z,11.63
2018-11-25T21:32:01.397Z,7.17
2018-11-25T21:34:30.603Z,8.23
2018-11-25T21:36:59.716Z,6.90
2018-11-25T21:39:29.750Z,9.93
2018-11-25T21:41:58.612Z,7.27
2018-11-25T21:44:28.155Z,7.40
2018-11-25T21:46:57.492Z,9.27
2018-11-25T21:49:26.751Z,7.73
2018-11-25T21:51:55.502Z,7.10
2018-11-25T21:54:24.512Z,8.73
2018-11-25T21:56:53.370Z,9.90
2018-11-25T21:59:23.008Z,6.73
2018-11-25T22:01:53.894Z,7.40
2018-11-25T22:04:22.687Z,9.23
2018-11-25T22:06:51.471Z,7.00
2018-11-25T22:09:22.385Z,6.70
2018-11-25T22:11:51.177Z,6.33
2018-11-25T22:14:19.931Z,5.50
2018-11-25T22:16:49.171Z,8.67
2018-11-25T22:19:18.529Z,8.67
2018-11-25T22:21:47.243Z,9.87
2018-11-25T22:24:16.790Z,5.57
2018-11-25T22:26:45.571Z,6.60
2018-11-25T22:29:14.332Z,8.00
2018-11-25T22:31:43.064Z,6.10
2018-11-25T22:34:11.804Z,6.60
2018-11-25T22:36:40.848Z,7.00
2018-11-25T22:39:10.459Z,5.50
2018-11-25T22:41:39.756Z,6.67
2018-11-25T22:44:09.843Z,4.97
2018-11-25T22:46:40.027Z,5.53
2018-11-25T22:49:08.967Z,5.10
2018-11-25T22:51:38.526Z,4.53
2018-11-25T22:54:07.457Z,5.17
2018-11-25T22:56:36.515Z,6.03
2018-11-25T22:59:06.324Z,5.27
2018-11-25T23:01:36.747Z,6.30
2018-11-25T23:04:16.591Z,7.20
2018-11-25T23:07:02.963Z,3.93
2018-11-25T23:09:32.334Z,7.30
2018-11-25T23:12:01.128Z,7.17
2018-11-25T23:14:30.955Z,6.23
2018-11-25T23:17:00.616Z,5.37
2018-11-25T23:19:29.391Z,6.17
2018-11-25T23:21:58.124Z,4.20
2018-11-25T23:24:27.939Z,6.70
2018-11-25T23:26:57.046Z,4.70
2018-11-25T23:29:26.453Z,4.93
2018-11-25T23:31:56.320Z,6.43
2018-11-25T23:34:25.439Z,5.93
2018-11-25T23:36:54.867Z,9.83
2018-11-25T23:39:24.807Z,7.60
2018-11-25T23:41:54.336Z,7.30
2018-11-25T23:44:23.859Z,4.63
2018-11-25T23:46:54.356Z,6.27
2018-11-25T23:49:23.533Z,9.33
2018-11-25T23:51:52.962Z,5.53
2018-11-25T23:54:21.742Z,4.10
2018-11-25T23:56:50.509Z,7.13
2018-11-25T23:59:20.483Z,7.87
